Ithaca, NY

7:57 PM EST on November 22, 2014 (GMT -0500)
Muzzy Rd, Danby NY | Change Station
CLOSE
Current Station
Personal Weather Station
Location: Ithaca, NY
Elevation: 1427 ft
Nearby Weather Stations
Active Advisory: Special Statement Active Notice: Record Report

Elev 1427 ft 42.38 °N, 76.48 °W | Updated 10 minutes ago

Overcast
Overcast
38.0 °F
Feels Like 38 °F
N
2.0
Wind Variable Wind from SSW
Gusts 10.0 mph

Today
High -- | Low -- °F
--% Chance of Precip.
Yesterday
High -- | Low -- °F
Precip. -- in
7:05 AM 4:38 PM
New Moon, 0% visible
Pressure 30.11 in
Visibility 10.0 miles
Clouds Overcast 1800 ft
Windchill 38 °F
Dew Point 34 °F
Humidity 84%
Rainfall 0.02 in
Snow Depth Not available.
UV 0 out of 12
Pollen .10 out of 12
Air Quality Not available.
Flu Activity Not available.
METAR KITH 222356Z 18008KT 10SM -RA OVC018 04/01 A3007 RMK AO2 58001 60000 T00380005 10055 20033 RAB28 P0000 SLP196

More Conditions Fewer Conditions

Pressure 30.11 in
Visibility 10.0 miles
Clouds Overcast 1800 ft
Windchill 38 °F
Dew Point 34 °F
Humidity 84%
Rainfall 0.02 in
Snow Depth Not available.
UV 0 out of 12
Pollen .10 out of 12
Air Quality Not available.
Flu Activity Not available.
METAR KITH 222356Z 18008KT 10SM -RA OVC018 04/01 A3007 RMK AO2 58001 60000 T00380005 10055 20033 RAB28 P0000 SLP196

More Conditions Fewer Conditions

10-Day Weather Forecast

Almanac

Astronomy

Nov. 22, 2014 Rise Set
Actual Time
Civil Twilight
Nautical Twilight
Astronomical Twilight
Moon
Length of Visible Light
Length of Day
Tomorrow will be .
, % of the Moon is Illuminated

Today's Extremes

State Highs State Lows

Community

WunderPhotos

Upload Photos

1,772,938 photos uploaded!

WunderBlogs® & News

Nearby

Air Quality

  Air Quality AQ Index Pollutant
Not available.

Snow Depth

Station Depth Elevation

Earthquake Activity

City Distance Mag. Time & Date
Minimum magnitude displayed is 2.5.

Coastal Water Temperatures

Place Temperature

Nearby Weather Stations